createdAt,value
2023-02-01T00:01:47.050Z,5.40
2023-02-01T00:04:13.704Z,5.30
2023-02-01T00:06:40.205Z,5.30
2023-02-01T00:09:06.802Z,5.40
2023-02-01T00:11:33.329Z,5.40
2023-02-01T00:13:59.899Z,5.40
2023-02-01T00:16:27.889Z,5.40
2023-02-01T00:18:59.179Z,5.40
2023-02-01T00:21:25.944Z,5.40
2023-02-01T00:23:52.524Z,5.40
2023-02-01T00:26:20.406Z,5.40
2023-02-01T00:28:47.100Z,5.40
2023-02-01T00:31:13.740Z,5.40
2023-02-01T00:33:40.472Z,5.40
2023-02-01T00:36:08.155Z,5.40
2023-02-01T00:38:37.220Z,5.40
2023-02-01T00:41:04.775Z,5.40
2023-02-01T00:43:31.887Z,5.40
2023-02-01T00:45:58.800Z,5.40
2023-02-01T00:48:25.775Z,5.40
2023-02-01T00:50:52.389Z,5.50
2023-02-01T00:53:19.042Z,5.50
2023-02-01T00:55:48.751Z,5.50
2023-02-01T00:58:15.428Z,5.50
2023-02-01T01:00:42.399Z,5.50
2023-02-01T01:03:18.510Z,5.50
2023-02-01T01:05:48.753Z,5.50
2023-02-01T01:08:15.607Z,5.50
2023-02-01T01:10:42.664Z,5.50
2023-02-01T01:13:09.571Z,5.50
2023-02-01T01:15:36.816Z,5.50
2023-02-01T01:18:04.231Z,5.50
2023-02-01T01:20:30.805Z,5.50
2023-02-01T01:22:57.330Z,5.50
2023-02-01T01:25:23.870Z,5.50
2023-02-01T01:27:50.493Z,5.50
2023-02-01T01:30:17.246Z,5.50
2023-02-01T01:32:43.737Z,5.50
2023-02-01T01:35:10.734Z,5.50
2023-02-01T01:37:37.649Z,5.60
2023-02-01T01:40:05.248Z,5.50
2023-02-01T01:42:31.900Z,5.50
2023-02-01T01:45:04.834Z,5.50
2023-02-01T01:47:34.614Z,5.50
2023-02-01T01:50:01.801Z,5.50
2023-02-01T01:52:28.596Z,5.50
2023-02-01T01:54:55.400Z,5.50
2023-02-01T01:57:27.186Z,5.40
2023-02-01T02:00:08.309Z,5.40
2023-02-01T02:02:35.629Z,5.40
2023-02-01T02:05:02.293Z,5.40
2023-02-01T02:10:02.363Z,5.40
2023-02-01T02:12:29.064Z,5.40
2023-02-01T02:14:55.717Z,5.40
2023-02-01T02:17:28.334Z,5.40
2023-02-01T02:20:13.315Z,5.40
2023-02-01T02:22:45.943Z,5.40
2023-02-01T02:25:17.755Z,5.40
2023-02-01T02:27:50.749Z,5.40
2023-02-01T02:30:35.878Z,5.40
2023-02-01T02:33:21.396Z,5.40
2023-02-01T02:36:06.657Z,5.40
2023-02-01T02:38:46.000Z,5.30
2023-02-01T02:41:50.202Z,5.40
2023-02-01T02:44:40.717Z,5.40
2023-02-01T02:47:26.225Z,5.30
2023-02-01T02:50:17.758Z,5.40
2023-02-01T02:53:08.041Z,5.40
2023-02-01T02:55:36.671Z,5.40
2023-02-01T02:58:23.339Z,5.40
2023-02-01T03:01:09.345Z,5.40
2023-02-01T03:03:57.937Z,5.40
2023-02-01T03:06:25.145Z,5.30
2023-02-01T03:08:54.870Z,5.30
2023-02-01T03:11:21.459Z,5.30
2023-02-01T03:13:57.390Z,5.30
2023-02-01T03:16:24.209Z,5.30
2023-02-01T03:18:50.798Z,5.30
2023-02-01T03:21:21.864Z,5.30
2023-02-01T03:23:49.089Z,5.30
2023-02-01T03:26:19.125Z,5.30
2023-02-01T03:28:49.193Z,5.30
2023-02-01T03:31:15.707Z,5.30
2023-02-01T03:33:42.476Z,5.30
2023-02-01T03:36:10.689Z,5.30
2023-02-01T03:38:40.366Z,5.30
2023-02-01T03:41:10.028Z,5.30
2023-02-01T03:43:41.861Z,5.30
2023-02-01T03:46:10.775Z,5.30
2023-02-01T03:48:37.636Z,5.30
2023-02-01T03:51:05.255Z,5.30
2023-02-01T03:53:32.133Z,5.30
2023-02-01T03:55:59.033Z,5.30
2023-02-01T03:58:25.778Z,5.30
2023-02-01T04:00:54.154Z,5.30
2023-02-01T04:03:22.499Z,5.30
2023-02-01T04:05:49.753Z,5.30
2023-02-01T04:08:16.665Z,5.30
2023-02-01T04:10:43.283Z,5.40
2023-02-01T04:13:09.815Z,5.40
2023-02-01T04:15:36.455Z,5.40
2023-02-01T04:18:03.001Z,5.40
2023-02-01T04:20:29.570Z,5.40
2023-02-01T04:22:56.109Z,5.40
2023-02-01T04:25:22.734Z,5.40
2023-02-01T04:27:49.497Z,5.40
2023-02-01T04:30:16.281Z,5.40
2023-02-01T04:32:42.810Z,5.40
2023-02-01T04:35:09.612Z,5.50
2023-02-01T04:37:36.300Z,4.80
2023-02-01T04:40:04.639Z,5.50
2023-02-01T04:42:31.153Z,5.50
2023-02-01T04:44:57.719Z,5.50
2023-02-01T04:47:24.503Z,5.50
2023-02-01T04:49:51.224Z,5.50
2023-02-01T04:52:17.864Z,5.50
2023-02-01T04:54:44.353Z,5.50
2023-02-01T04:57:12.177Z,5.40
2023-02-01T04:59:38.698Z,5.40
2023-02-01T05:02:05.229Z,5.40
2023-02-01T05:04:31.962Z,5.30
2023-02-01T05:06:58.549Z,5.30
2023-02-01T05:09:25.058Z,5.30
2023-02-01T05:12:10.448Z,5.30
2023-02-01T05:14:36.940Z,5.30
2023-02-01T05:17:03.470Z,5.30
2023-02-01T05:19:30.067Z,5.30
2023-02-01T05:21:56.598Z,5.20
2023-02-01T05:24:23.125Z,5.20
2023-02-01T05:26:49.924Z,5.20
2023-02-01T05:29:17.218Z,5.20
2023-02-01T05:31:45.840Z,5.50
2023-02-01T05:34:12.632Z,5.20
2023-02-01T05:36:39.256Z,5.20
2023-02-01T05:39:05.887Z,5.20
2023-02-01T05:41:32.439Z,5.20
2023-02-01T05:43:58.942Z,5.30
2023-02-01T05:46:25.677Z,5.20
2023-02-01T05:48:52.352Z,4.60
2023-02-01T05:51:19.065Z,5.10
2023-02-01T05:53:45.620Z,5.10
2023-02-01T05:56:12.180Z,5.10
2023-02-01T05:58:38.788Z,5.10
2023-02-01T06:01:05.370Z,5.10
2023-02-01T06:03:31.933Z,5.10
2023-02-01T06:05:58.530Z,5.10
2023-02-01T06:08:26.648Z,5.10
2023-02-01T06:11:00.375Z,5.00
2023-02-01T06:13:26.994Z,5.00
2023-02-01T06:15:53.768Z,5.00
2023-02-01T06:18:20.514Z,4.90
2023-02-01T06:20:52.459Z,5.00
2023-02-01T06:23:18.962Z,4.90
2023-02-01T06:25:46.091Z,4.90
2023-02-01T06:28:12.752Z,4.90
2023-02-01T06:30:42.041Z,4.90
2023-02-01T06:33:08.603Z,4.90
2023-02-01T06:35:35.245Z,5.00
2023-02-01T06:38:01.940Z,4.90
2023-02-01T06:40:28.459Z,4.80
2023-02-01T06:42:54.967Z,4.80
2023-02-01T06:45:21.475Z,4.80
2023-02-01T06:47:47.994Z,4.80
2023-02-01T06:50:14.513Z,4.80
2023-02-01T06:52:41.062Z,4.80
2023-02-01T06:55:07.738Z,4.80
2023-02-01T06:57:35.297Z,4.80
2023-02-01T07:00:02.714Z,4.80
2023-02-01T07:02:29.292Z,4.80
2023-02-01T07:04:55.909Z,4.80
2023-02-01T07:07:23.495Z,4.80
2023-02-01T07:09:50.474Z,4.80
2023-02-01T07:12:17.035Z,4.80
2023-02-01T07:14:43.652Z,4.80
2023-02-01T07:17:10.186Z,4.90
2023-02-01T07:19:36.808Z,4.90
2023-02-01T07:22:03.351Z,4.90
2023-02-01T07:24:31.556Z,4.90
2023-02-01T07:26:58.047Z,4.90
2023-02-01T07:29:24.602Z,4.90
2023-02-01T07:31:51.089Z,4.90
2023-02-01T07:34:17.619Z,5.00
2023-02-01T07:36:44.162Z,5.00
2023-02-01T07:39:10.796Z,5.10
2023-02-01T07:41:37.369Z,5.00
2023-02-01T07:44:03.930Z,5.20
2023-02-01T07:46:30.476Z,5.20
2023-02-01T07:48:57.111Z,5.20
2023-02-01T07:51:23.636Z,5.20
2023-02-01T07:53:50.180Z,5.20
2023-02-01T07:56:18.010Z,5.40
2023-02-01T07:58:48.034Z,5.30
2023-02-01T08:01:21.992Z,5.40
2023-02-01T08:03:49.871Z,5.50
2023-02-01T08:06:16.506Z,5.60
2023-02-01T08:08:45.941Z,5.70
2023-02-01T08:11:12.498Z,5.70
2023-02-01T08:13:39.119Z,5.80
2023-02-01T08:16:07.361Z,5.80
2023-02-01T08:18:34.664Z,5.90
2023-02-01T08:21:08.815Z,5.90
2023-02-01T08:23:36.273Z,6.00
2023-02-01T08:26:10.603Z,6.20
2023-02-01T08:28:38.091Z,6.30
2023-02-01T08:31:05.678Z,6.40
2023-02-01T08:33:32.317Z,6.50
2023-02-01T08:36:00.939Z,6.70
2023-02-01T08:38:27.456Z,6.70
2023-02-01T08:40:53.958Z,6.70
2023-02-01T08:43:20.542Z,6.60
2023-02-01T08:45:47.213Z,6.60
2023-02-01T08:48:13.869Z,6.80
2023-02-01T08:50:40.448Z,6.70
2023-02-01T08:53:06.958Z,6.60
2023-02-01T08:55:33.486Z,6.50
2023-02-01T08:58:00.040Z,6.50
2023-02-01T09:00:26.711Z,6.40
2023-02-01T09:02:53.383Z,6.30
2023-02-01T09:05:23.116Z,6.30
2023-02-01T09:07:49.756Z,6.40
2023-02-01T09:10:18.942Z,6.40
2023-02-01T09:12:47.540Z,6.40
2023-02-01T09:15:14.129Z,6.40
2023-02-01T09:17:42.730Z,6.30
2023-02-01T09:20:09.873Z,6.30
2023-02-01T09:22:36.550Z,6.20
2023-02-01T09:25:03.217Z,6.20
2023-02-01T09:27:29.856Z,6.10
2023-02-01T09:29:56.421Z,6.00
2023-02-01T09:32:23.814Z,5.90
2023-02-01T09:34:51.089Z,5.90
2023-02-01T09:37:17.761Z,5.70
2023-02-01T09:39:44.504Z,5.70
2023-02-01T09:42:17.388Z,5.70
2023-02-01T09:44:47.071Z,5.60
2023-02-01T09:47:19.443Z,5.50
2023-02-01T09:49:56.668Z,5.40
2023-02-01T09:52:29.741Z,5.50
2023-02-01T09:55:03.619Z,5.70
2023-02-01T09:57:50.366Z,5.80
2023-02-01T10:00:20.331Z,6.00
2023-02-01T10:02:46.995Z,6.20
2023-02-01T10:05:14.865Z,7.50
2023-02-01T10:08:02.804Z,9.60
2023-02-01T10:10:32.139Z,10.60
2023-02-01T10:13:01.851Z,10.10
2023-02-01T10:15:28.378Z,9.80
2023-02-01T10:18:08.039Z,9.30
2023-02-01T10:20:48.152Z,8.80
2023-02-01T10:23:34.817Z,8.40
2023-02-01T10:26:06.223Z,8.20
2023-02-01T10:28:34.786Z,7.90
2023-02-01T10:31:02.467Z,7.70
2023-02-01T10:33:37.746Z,7.60
2023-02-01T10:36:11.187Z,7.40
2023-02-01T10:38:37.829Z,7.40
2023-02-01T10:41:09.566Z,7.30
2023-02-01T10:43:36.187Z,7.20
2023-02-01T10:46:02.855Z,7.30
2023-02-01T10:48:31.132Z,7.30
2023-02-01T10:51:03.367Z,7.80
2023-02-01T10:53:43.801Z,8.60
2023-02-01T10:56:11.553Z,9.00
2023-02-01T10:58:44.519Z,8.70
2023-02-01T11:01:17.279Z,8.60
2023-02-01T11:04:00.222Z,8.40
2023-02-01T11:06:29.140Z,8.30
2023-02-01T11:08:57.607Z,8.20
2023-02-01T11:11:24.815Z,8.10
2023-02-01T11:13:59.285Z,8.00
2023-02-01T11:16:30.492Z,8.00
2023-02-01T11:18:59.000Z,8.10
2023-02-01T11:21:25.580Z,8.50
2023-02-01T11:23:52.233Z,8.60
2023-02-01T11:26:26.018Z,8.40
2023-02-01T11:29:00.755Z,8.40
2023-02-01T11:31:28.179Z,8.20
2023-02-01T11:33:58.581Z,8.00
2023-02-01T11:36:28.244Z,7.80
2023-02-01T11:39:13.268Z,7.70
2023-02-01T11:41:58.391Z,7.60
2023-02-01T11:44:38.052Z,7.60
2023-02-01T11:47:23.670Z,7.50
2023-02-01T11:49:51.222Z,7.40
2023-02-01T11:52:24.569Z,7.40
2023-02-01T11:55:00.269Z,7.40
2023-02-01T11:57:36.019Z,7.40
2023-02-01T12:00:21.982Z,7.30
2023-02-01T12:03:16.754Z,7.30
2023-02-01T12:06:01.987Z,7.50
2023-02-01T12:08:36.144Z,7.60
2023-02-01T12:11:17.295Z,7.80
2023-02-01T12:13:47.019Z,7.80
2023-02-01T12:16:20.584Z,7.80
2023-02-01T12:19:03.911Z,7.70
2023-02-01T12:21:39.354Z,7.60
2023-02-01T12:24:24.833Z,7.60
2023-02-01T12:26:55.830Z,7.50
2023-02-01T12:29:25.647Z,7.40
2023-02-01T12:32:01.278Z,7.40
2023-02-01T12:34:46.776Z,7.50
2023-02-01T12:37:19.433Z,7.50
2023-02-01T12:39:49.095Z,7.40
2023-02-01T12:42:30.186Z,7.40
2023-02-01T12:45:03.261Z,7.50
2023-02-01T12:47:32.283Z,7.40
2023-02-01T12:50:05.151Z,7.40
2023-02-01T12:52:36.503Z,7.30
2023-02-01T12:55:23.650Z,7.40
2023-02-01T12:57:55.886Z,7.50
2023-02-01T13:00:25.583Z,7.50
2023-02-01T13:02:56.570Z,7.50
2023-02-01T13:05:25.900Z,7.50
2023-02-01T13:07:55.426Z,7.50
2023-02-01T13:10:28.022Z,7.50
2023-02-01T13:12:57.428Z,7.40
2023-02-01T13:15:25.937Z,7.40
2023-02-01T13:17:54.557Z,7.40
2023-02-01T13:20:35.760Z,7.40
2023-02-01T13:23:26.030Z,7.20
2023-02-01T13:25:53.511Z,7.10
2023-02-01T13:28:23.211Z,7.10
2023-02-01T13:30:58.602Z,7.20
2023-02-01T13:33:52.642Z,7.20
2023-02-01T13:36:28.877Z,7.30
2023-02-01T13:39:07.688Z,7.30
2023-02-01T13:41:52.701Z,7.30
2023-02-01T13:44:27.107Z,7.40
2023-02-01T13:46:55.912Z,7.40
2023-02-01T13:49:37.358Z,7.40
2023-02-01T13:52:04.720Z,7.30
2023-02-01T13:54:37.166Z,7.30
2023-02-01T13:57:04.416Z,7.30
2023-02-01T13:59:45.985Z,7.30
2023-02-01T14:02:31.093Z,7.50
2023-02-01T14:04:57.673Z,7.60
2023-02-01T14:07:24.809Z,7.60
2023-02-01T14:09:51.421Z,7.60
2023-02-01T14:12:36.724Z,7.70
2023-02-01T14:15:23.753Z,7.60
2023-02-01T14:17:50.716Z,7.70
2023-02-01T14:20:36.347Z,7.60
2023-02-01T14:23:04.018Z,7.60
2023-02-01T14:25:34.305Z,7.60
2023-02-01T14:28:01.872Z,7.50
2023-02-01T14:30:28.540Z,7.60
2023-02-01T14:32:55.151Z,7.50
2023-02-01T14:35:26.238Z,7.50
2023-02-01T14:37:54.587Z,7.40
2023-02-01T14:40:23.945Z,7.30
2023-02-01T14:42:53.348Z,7.30
2023-02-01T14:45:20.063Z,7.20
2023-02-01T14:47:55.301Z,7.20
2023-02-01T14:50:21.872Z,7.10
2023-02-01T14:52:51.502Z,7.10
2023-02-01T14:55:36.640Z,7.00
2023-02-01T14:58:06.180Z,7.00
2023-02-01T15:00:34.088Z,6.90
2023-02-01T15:03:19.613Z,6.80
2023-02-01T15:05:46.936Z,6.80
2023-02-01T15:08:17.763Z,6.80
2023-02-01T15:10:46.724Z,6.80
2023-02-01T15:13:20.012Z,6.80
2023-02-01T15:16:00.045Z,6.70
2023-02-01T15:18:26.594Z,6.70
2023-02-01T15:21:09.734Z,6.70
2023-02-01T15:23:49.588Z,6.60
2023-02-01T15:26:26.178Z,6.60
2023-02-01T15:28:52.747Z,6.60
2023-02-01T15:31:32.128Z,6.60
2023-02-01T15:33:59.164Z,6.60
2023-02-01T15:36:28.464Z,6.70
2023-02-01T15:39:13.856Z,6.70
2023-02-01T15:41:41.445Z,6.50
2023-02-01T15:44:31.489Z,6.50
2023-02-01T15:46:58.879Z,6.50
2023-02-01T15:49:33.732Z,6.50
2023-02-01T15:52:01.251Z,6.50
2023-02-01T15:54:32.436Z,7.00
2023-02-01T15:57:00.892Z,6.50
2023-02-01T15:59:32.291Z,6.50
2023-02-01T16:01:58.916Z,6.50
2023-02-01T16:04:27.114Z,6.40
2023-02-01T16:06:58.316Z,6.40
2023-02-01T16:09:28.185Z,6.40
2023-02-01T16:12:01.726Z,6.40
2023-02-01T16:14:28.293Z,6.40
2023-02-01T16:16:55.828Z,6.40
2023-02-01T16:19:25.002Z,6.40
2023-02-01T16:21:51.561Z,6.40
2023-02-01T16:24:18.073Z,6.30
2023-02-01T16:26:44.717Z,6.30
2023-02-01T16:29:11.310Z,6.30
2023-02-01T16:31:39.566Z,6.30
2023-02-01T16:34:07.069Z,6.20
2023-02-01T16:36:34.224Z,6.30
2023-02-01T16:39:01.016Z,6.30
2023-02-01T16:41:28.832Z,6.30
2023-02-01T16:43:56.062Z,6.40
2023-02-01T16:46:25.821Z,6.30
2023-02-01T16:48:54.079Z,6.30
2023-02-01T16:51:20.644Z,6.30
2023-02-01T16:53:54.186Z,6.30
2023-02-01T16:56:22.551Z,6.20
2023-02-01T16:58:49.205Z,6.30
2023-02-01T17:01:17.483Z,6.30
2023-02-01T17:03:47.082Z,6.30
2023-02-01T17:06:15.924Z,6.20
2023-02-01T17:08:44.149Z,6.30
2023-02-01T17:11:12.152Z,6.30
2023-02-01T17:13:38.656Z,6.20
2023-02-01T17:16:07.021Z,6.30
2023-02-01T17:18:34.509Z,6.20
2023-02-01T17:21:02.496Z,6.20
2023-02-01T17:23:29.972Z,6.20
2023-02-01T17:25:57.274Z,6.30
2023-02-01T17:28:24.002Z,7.50
2023-02-01T17:30:50.603Z,9.20
2023-02-01T17:33:26.782Z,10.60
2023-02-01T17:35:54.304Z,10.80
2023-02-01T17:38:20.836Z,11.10
2023-02-01T17:40:47.405Z,11.40
2023-02-01T17:43:15.251Z,11.50
2023-02-01T17:45:49.973Z,10.20
2023-02-01T17:48:16.943Z,9.30
2023-02-01T17:50:43.629Z,8.40
2023-02-01T17:53:11.151Z,7.90
2023-02-01T17:55:40.837Z,7.60
2023-02-01T17:58:07.445Z,7.30
2023-02-01T18:00:36.012Z,7.20
2023-02-01T18:03:03.556Z,7.10
2023-02-01T18:05:36.797Z,6.90
2023-02-01T18:08:03.304Z,6.80
2023-02-01T18:10:30.514Z,7.00
2023-02-01T18:12:57.483Z,6.70
2023-02-01T18:15:25.855Z,6.70
2023-02-01T18:17:52.540Z,6.60
2023-02-01T18:20:22.307Z,6.70
2023-02-01T18:22:49.485Z,6.60
2023-02-01T18:25:21.207Z,6.60
2023-02-01T18:27:48.862Z,6.60
2023-02-01T18:30:15.745Z,6.60
2023-02-01T18:32:43.192Z,6.50
2023-02-01T18:35:23.599Z,6.50
2023-02-01T18:37:51.059Z,6.50
2023-02-01T18:40:20.019Z,6.50
2023-02-01T18:42:46.692Z,6.50
2023-02-01T18:45:16.184Z,6.50
2023-02-01T18:47:42.723Z,6.50
2023-02-01T18:50:10.610Z,6.50
2023-02-01T18:52:37.208Z,6.50
2023-02-01T18:55:03.797Z,6.50
2023-02-01T18:57:30.346Z,6.50
2023-02-01T18:59:56.844Z,6.50
2023-02-01T19:02:23.444Z,6.50
2023-02-01T19:04:49.963Z,6.50
2023-02-01T19:07:16.637Z,6.50
2023-02-01T19:09:43.467Z,6.50
2023-02-01T19:12:10.010Z,6.50
2023-02-01T19:14:36.509Z,6.50
2023-02-01T19:17:03.187Z,6.50
2023-02-01T19:19:29.832Z,6.50
2023-02-01T19:21:56.377Z,6.50
2023-02-01T19:24:27.820Z,6.40
2023-02-01T19:26:54.643Z,6.40
2023-02-01T19:29:21.243Z,6.40
2023-02-01T19:31:47.836Z,6.40
2023-02-01T19:34:14.449Z,6.30
2023-02-01T19:36:42.741Z,6.40
2023-02-01T19:39:09.932Z,6.30
2023-02-01T19:41:36.472Z,6.30
2023-02-01T19:44:04.318Z,6.30
2023-02-01T19:46:30.893Z,6.30
2023-02-01T19:48:57.674Z,6.20
2023-02-01T19:51:24.215Z,6.20
2023-02-01T19:53:50.745Z,6.30
2023-02-01T19:56:17.494Z,6.30
2023-02-01T19:58:44.115Z,6.30
2023-02-01T20:01:10.110Z,6.30
2023-02-01T20:03:36.716Z,6.30
2023-02-01T20:06:03.341Z,6.30
2023-02-01T20:08:29.841Z,6.30
2023-02-01T20:10:57.258Z,6.30
2023-02-01T20:13:23.841Z,6.20
2023-02-01T20:15:55.747Z,6.20
2023-02-01T20:18:22.282Z,6.20
2023-02-01T20:20:48.932Z,6.20
2023-02-01T20:23:15.517Z,6.20
2023-02-01T20:25:42.875Z,6.20
2023-02-01T20:28:09.487Z,6.30
2023-02-01T20:30:36.442Z,6.20
2023-02-01T20:33:03.114Z,6.20
2023-02-01T20:35:29.663Z,6.10
2023-02-01T20:37:57.038Z,6.10
2023-02-01T20:40:24.682Z,6.10
2023-02-01T20:42:51.192Z,6.10
2023-02-01T20:45:17.851Z,6.10
2023-02-01T20:47:44.372Z,6.10
2023-02-01T20:50:11.323Z,6.10
2023-02-01T20:52:37.839Z,6.10
2023-02-01T20:55:04.575Z,6.10
2023-02-01T20:57:31.210Z,6.10
2023-02-01T20:59:57.805Z,6.10
2023-02-01T21:02:24.448Z,6.10
2023-02-01T21:04:50.977Z,6.20
2023-02-01T21:07:17.532Z,6.20
2023-02-01T21:09:44.949Z,6.20
2023-02-01T21:12:11.508Z,6.20
2023-02-01T21:14:38.194Z,6.20
2023-02-01T21:17:04.717Z,6.10
2023-02-01T21:19:42.806Z,6.20
2023-02-01T21:22:10.137Z,6.20
2023-02-01T21:24:36.808Z,6.20
2023-02-01T21:27:03.474Z,6.00
2023-02-01T21:29:30.087Z,6.20
2023-02-01T21:31:56.845Z,6.20
2023-02-01T21:34:23.443Z,6.20
2023-02-01T21:36:50.130Z,6.20
2023-02-01T21:39:17.668Z,6.20
2023-02-01T21:42:03.072Z,6.20
2023-02-01T21:44:29.732Z,6.20
2023-02-01T21:46:56.411Z,6.20
2023-02-01T21:49:24.957Z,6.20
2023-02-01T21:51:52.073Z,6.20
2023-02-01T21:54:18.645Z,6.30
2023-02-01T21:56:45.496Z,6.30
2023-02-01T21:59:12.790Z,6.20
2023-02-01T22:01:40.127Z,6.20
2023-02-01T22:04:07.195Z,6.20
2023-02-01T22:06:45.993Z,6.20
2023-02-01T22:09:20.297Z,6.20
2023-02-01T22:11:47.127Z,6.20
2023-02-01T22:14:14.186Z,6.10
2023-02-01T22:16:40.830Z,6.10
2023-02-01T22:19:09.849Z,6.10
2023-02-01T22:21:37.606Z,6.10
2023-02-01T22:24:04.274Z,6.10
2023-02-01T22:26:30.838Z,6.10
2023-02-01T22:28:57.644Z,6.10
2023-02-01T22:31:24.342Z,6.10
2023-02-01T22:33:50.980Z,6.10
2023-02-01T22:36:17.994Z,6.10
2023-02-01T22:38:45.500Z,6.10
2023-02-01T22:41:12.769Z,6.10
2023-02-01T22:43:39.556Z,6.10
2023-02-01T22:46:08.440Z,6.10
2023-02-01T22:48:36.755Z,6.20
2023-02-01T22:51:03.489Z,6.10
2023-02-01T22:53:30.349Z,6.10
2023-02-01T22:56:01.057Z,6.20
2023-02-01T22:58:27.580Z,6.10
2023-02-01T23:00:54.133Z,6.10
2023-02-01T23:03:20.800Z,6.10
2023-02-01T23:05:47.422Z,6.10
2023-02-01T23:08:13.961Z,6.10
2023-02-01T23:10:40.522Z,6.10
2023-02-01T23:13:07.036Z,6.10
2023-02-01T23:15:33.618Z,6.10
2023-02-01T23:18:00.183Z,6.10
2023-02-01T23:20:26.746Z,6.10
2023-02-01T23:22:53.423Z,6.20
2023-02-01T23:25:20.213Z,6.30
2023-02-01T23:27:48.709Z,6.10
2023-02-01T23:30:16.666Z,6.20
2023-02-01T23:32:43.530Z,6.20
2023-02-01T23:35:10.211Z,6.20
2023-02-01T23:37:36.753Z,6.20
2023-02-01T23:40:03.432Z,6.30
2023-02-01T23:42:29.932Z,6.30
2023-02-01T23:44:56.451Z,6.30
2023-02-01T23:47:22.951Z,6.30
2023-02-01T23:49:49.472Z,6.30
2023-02-01T23:52:15.955Z,6.40
2023-02-01T23:54:42.465Z,6.30
2023-02-01T23:57:09.227Z,6.40
2023-02-01T23:59:35.889Z,6.40
